sensor_id;sensor_type;location;lat;lon;timestamp;P1;durP1;ratioP1;P2;durP2;ratioP2
77152;SDS011;66124;51.146;17.072;2023-08-12T00:01:09;6.30;;;5.20;;
77152;SDS011;66124;51.146;17.072;2023-08-12T00:11:05;5.70;;;5.10;;
77152;SDS011;66124;51.146;17.072;2023-08-12T00:13:35;7.00;;;5.40;;
77152;SDS011;66124;51.146;17.072;2023-08-12T00:16:05;8.90;;;6.10;;
77152;SDS011;66124;51.146;17.072;2023-08-12T00:18:34;7.70;;;5.40;;
77152;SDS011;66124;51.146;17.072;2023-08-12T00:21:06;7.20;;;5.50;;
77152;SDS011;66124;51.146;17.072;2023-08-12T00:23:37;7.20;;;5.20;;
77152;SDS011;66124;51.146;17.072;2023-08-12T00:26:07;8.50;;;5.90;;
77152;SDS011;66124;51.146;17.072;2023-08-12T00:28:36;7.10;;;5.60;;
77152;SDS011;66124;51.146;17.072;2023-08-12T00:31:06;7.40;;;5.40;;
77152;SDS011;66124;51.146;17.072;2023-08-12T00:33:35;6.90;;;5.50;;
77152;SDS011;66124;51.146;17.072;2023-08-12T00:36:05;6.50;;;5.30;;
77152;SDS011;66124;51.146;17.072;2023-08-12T00:38:35;5.90;;;5.30;;
77152;SDS011;66124;51.146;17.072;2023-08-12T00:41:04;7.20;;;5.80;;
77152;SDS011;66124;51.146;17.072;2023-08-12T00:43:34;10.00;;;5.80;;
77152;SDS011;66124;51.146;17.072;2023-08-12T00:46:03;7.10;;;5.50;;
77152;SDS011;66124;51.146;17.072;2023-08-12T00:48:33;8.00;;;6.10;;
77152;SDS011;66124;51.146;17.072;2023-08-12T00:51:02;7.40;;;6.00;;
77152;SDS011;66124;51.146;17.072;2023-08-12T00:53:32;7.00;;;5.30;;
77152;SDS011;66124;51.146;17.072;2023-08-12T00:56:01;7.60;;;6.60;;
77152;SDS011;66124;51.146;17.072;2023-08-12T00:58:31;8.20;;;5.80;;
77152;SDS011;66124;51.146;17.072;2023-08-12T01:01:01;8.40;;;5.80;;
77152;SDS011;66124;51.146;17.072;2023-08-12T01:03:31;8.20;;;6.30;;
77152;SDS011;66124;51.146;17.072;2023-08-12T01:06:00;6.90;;;5.40;;
77152;SDS011;66124;51.146;17.072;2023-08-12T01:08:31;8.20;;;5.60;;
77152;SDS011;66124;51.146;17.072;2023-08-12T01:11:06;8.20;;;6.10;;
77152;SDS011;66124;51.146;17.072;2023-08-12T01:13:42;6.70;;;6.00;;
77152;SDS011;66124;51.146;17.072;2023-08-12T01:16:14;6.40;;;5.60;;
77152;SDS011;66124;51.146;17.072;2023-08-12T01:18:46;7.20;;;6.10;;
77152;SDS011;66124;51.146;17.072;2023-08-12T01:32:21;7.60;;;6.80;;
77152;SDS011;66124;51.146;17.072;2023-08-12T01:35:00;7.70;;;6.60;;
77152;SDS011;66124;51.146;17.072;2023-08-12T01:37:34;6.40;;;5.60;;
77152;SDS011;66124;51.146;17.072;2023-08-12T01:42:37;7.40;;;6.20;;
77152;SDS011;66124;51.146;17.072;2023-08-12T01:45:09;8.30;;;6.00;;
77152;SDS011;66124;51.146;17.072;2023-08-12T01:47:38;8.90;;;6.20;;
77152;SDS011;66124;51.146;17.072;2023-08-12T01:50:12;7.10;;;6.30;;
77152;SDS011;66124;51.146;17.072;2023-08-12T01:52:41;8.80;;;6.60;;
77152;SDS011;66124;51.146;17.072;2023-08-12T01:55:10;6.90;;;6.20;;
77152;SDS011;66124;51.146;17.072;2023-08-12T01:57:40;8.60;;;6.30;;
77152;SDS011;66124;51.146;17.072;2023-08-12T02:00:10;6.90;;;5.80;;
77152;SDS011;66124;51.146;17.072;2023-08-12T02:02:39;7.90;;;6.80;;
77152;SDS011;66124;51.146;17.072;2023-08-12T02:05:09;7.20;;;6.20;;
77152;SDS011;66124;51.146;17.072;2023-08-12T02:07:38;7.50;;;5.90;;
77152;SDS011;66124;51.146;17.072;2023-08-12T02:10:09;8.90;;;6.20;;
77152;SDS011;66124;51.146;17.072;2023-08-12T02:12:38;7.20;;;5.60;;
77152;SDS011;66124;51.146;17.072;2023-08-12T02:15:09;7.40;;;6.20;;
77152;SDS011;66124;51.146;17.072;2023-08-12T02:17:38;7.50;;;6.80;;
77152;SDS011;66124;51.146;17.072;2023-08-12T02:20:09;8.00;;;5.80;;
77152;SDS011;66124;51.146;17.072;2023-08-12T02:22:39;6.40;;;5.80;;
77152;SDS011;66124;51.146;17.072;2023-08-12T02:25:09;7.00;;;5.70;;
77152;SDS011;66124;51.146;17.072;2023-08-12T02:27:38;8.50;;;6.00;;
77152;SDS011;66124;51.146;17.072;2023-08-12T02:30:08;7.50;;;5.90;;
77152;SDS011;66124;51.146;17.072;2023-08-12T02:32:39;7.30;;;5.50;;
77152;SDS011;66124;51.146;17.072;2023-08-12T02:35:09;7.90;;;5.30;;
77152;SDS011;66124;51.146;17.072;2023-08-12T02:37:38;6.90;;;5.60;;
77152;SDS011;66124;51.146;17.072;2023-08-12T02:40:09;6.80;;;5.80;;
77152;SDS011;66124;51.146;17.072;2023-08-12T02:42:39;8.40;;;5.70;;
77152;SDS011;66124;51.146;17.072;2023-08-12T02:51:07;6.60;;;6.00;;
77152;SDS011;66124;51.146;17.072;2023-08-12T02:53:37;6.40;;;5.60;;
77152;SDS011;66124;51.146;17.072;2023-08-12T02:56:06;8.00;;;6.10;;
77152;SDS011;66124;51.146;17.072;2023-08-12T02:58:36;6.20;;;5.40;;
77152;SDS011;66124;51.146;17.072;2023-08-12T03:01:05;7.50;;;6.40;;
77152;SDS011;66124;51.146;17.072;2023-08-12T03:03:36;8.90;;;6.20;;
77152;SDS011;66124;51.146;17.072;2023-08-12T03:06:05;6.60;;;5.90;;
77152;SDS011;66124;51.146;17.072;2023-08-12T03:08:35;6.80;;;5.30;;
77152;SDS011;66124;51.146;17.072;2023-08-12T03:11:04;7.60;;;6.20;;
77152;SDS011;66124;51.146;17.072;2023-08-12T03:13:33;7.10;;;6.30;;
77152;SDS011;66124;51.146;17.072;2023-08-12T03:16:03;7.60;;;6.80;;
77152;SDS011;66124;51.146;17.072;2023-08-12T03:18:38;8.80;;;7.10;;
77152;SDS011;66124;51.146;17.072;2023-08-12T03:21:07;7.80;;;6.60;;
77152;SDS011;66124;51.146;17.072;2023-08-12T03:23:37;10.50;;;8.30;;
77152;SDS011;66124;51.146;17.072;2023-08-12T03:26:08;8.10;;;7.00;;
77152;SDS011;66124;51.146;17.072;2023-08-12T03:28:37;7.60;;;6.80;;
77152;SDS011;66124;51.146;17.072;2023-08-12T03:31:07;8.40;;;6.50;;
77152;SDS011;66124;51.146;17.072;2023-08-12T03:33:36;8.40;;;6.90;;
77152;SDS011;66124;51.146;17.072;2023-08-12T03:36:05;7.60;;;6.70;;
77152;SDS011;66124;51.146;17.072;2023-08-12T03:38:35;10.20;;;6.90;;
77152;SDS011;66124;51.146;17.072;2023-08-12T03:41:05;7.50;;;6.10;;
77152;SDS011;66124;51.146;17.072;2023-08-12T03:43:35;7.70;;;6.60;;
77152;SDS011;66124;51.146;17.072;2023-08-12T03:46:04;8.00;;;5.90;;
77152;SDS011;66124;51.146;17.072;2023-08-12T03:48:34;8.20;;;6.50;;
77152;SDS011;66124;51.146;17.072;2023-08-12T03:51:03;7.00;;;5.50;;
77152;SDS011;66124;51.146;17.072;2023-08-12T03:53:32;6.60;;;5.70;;
77152;SDS011;66124;51.146;17.072;2023-08-12T03:56:02;8.20;;;6.10;;
77152;SDS011;66124;51.146;17.072;2023-08-12T03:58:32;8.30;;;5.70;;
77152;SDS011;66124;51.146;17.072;2023-08-12T04:01:01;7.60;;;6.80;;
77152;SDS011;66124;51.146;17.072;2023-08-12T04:03:30;8.00;;;6.00;;
77152;SDS011;66124;51.146;17.072;2023-08-12T04:11:08;6.50;;;5.90;;
77152;SDS011;66124;51.146;17.072;2023-08-12T04:13:37;7.10;;;5.60;;
77152;SDS011;66124;51.146;17.072;2023-08-12T04:16:07;6.80;;;6.10;;
77152;SDS011;66124;51.146;17.072;2023-08-12T04:18:36;8.30;;;5.90;;
77152;SDS011;66124;51.146;17.072;2023-08-12T04:21:06;6.60;;;5.80;;
77152;SDS011;66124;51.146;17.072;2023-08-12T04:23:36;8.50;;;6.20;;
77152;SDS011;66124;51.146;17.072;2023-08-12T04:26:05;7.00;;;6.20;;
77152;SDS011;66124;51.146;17.072;2023-08-12T04:28:35;10.00;;;6.80;;
77152;SDS011;66124;51.146;17.072;2023-08-12T04:31:05;6.40;;;5.70;;
77152;SDS011;66124;51.146;17.072;2023-08-12T04:33:35;7.50;;;6.60;;
77152;SDS011;66124;51.146;17.072;2023-08-12T04:36:05;7.90;;;5.80;;
77152;SDS011;66124;51.146;17.072;2023-08-12T04:38:35;7.00;;;6.30;;
77152;SDS011;66124;51.146;17.072;2023-08-12T04:41:04;7.50;;;6.80;;
77152;SDS011;66124;51.146;17.072;2023-08-12T04:43:33;8.50;;;5.80;;
77152;SDS011;66124;51.146;17.072;2023-08-12T04:46:03;8.50;;;6.10;;
77152;SDS011;66124;51.146;17.072;2023-08-12T04:48:32;7.70;;;7.00;;
77152;SDS011;66124;51.146;17.072;2023-08-12T04:51:01;8.10;;;7.10;;
77152;SDS011;66124;51.146;17.072;2023-08-12T04:53:31;6.80;;;5.80;;
77152;SDS011;66124;51.146;17.072;2023-08-12T04:56:00;7.90;;;7.20;;
77152;SDS011;66124;51.146;17.072;2023-08-12T04:58:30;7.40;;;6.60;;
77152;SDS011;66124;51.146;17.072;2023-08-12T05:01:00;7.10;;;5.30;;
77152;SDS011;66124;51.146;17.072;2023-08-12T05:03:29;7.20;;;6.40;;
77152;SDS011;66124;51.146;17.072;2023-08-12T05:05:59;8.20;;;6.80;;
77152;SDS011;66124;51.146;17.072;2023-08-12T05:08:28;7.50;;;6.60;;
77152;SDS011;66124;51.146;17.072;2023-08-12T05:10:57;6.80;;;6.00;;
77152;SDS011;66124;51.146;17.072;2023-08-12T05:13:27;7.10;;;6.30;;
77152;SDS011;66124;51.146;17.072;2023-08-12T05:15:56;6.30;;;5.50;;
77152;SDS011;66124;51.146;17.072;2023-08-12T05:18:26;7.00;;;6.30;;
77152;SDS011;66124;51.146;17.072;2023-08-12T05:20:55;6.00;;;5.40;;
77152;SDS011;66124;51.146;17.072;2023-08-12T05:31:00;6.80;;;6.20;;
77152;SDS011;66124;51.146;17.072;2023-08-12T05:33:29;6.30;;;5.70;;
77152;SDS011;66124;51.146;17.072;2023-08-12T05:35:59;7.10;;;6.50;;
77152;SDS011;66124;51.146;17.072;2023-08-12T05:38:28;6.80;;;6.20;;
77152;SDS011;66124;51.146;17.072;2023-08-12T05:40:58;6.40;;;5.80;;
77152;SDS011;66124;51.146;17.072;2023-08-12T05:43:28;7.30;;;6.50;;
77152;SDS011;66124;51.146;17.072;2023-08-12T05:45:58;7.50;;;6.00;;
77152;SDS011;66124;51.146;17.072;2023-08-12T05:48:28;7.50;;;6.80;;
77152;SDS011;66124;51.146;17.072;2023-08-12T05:50:57;7.40;;;6.60;;
77152;SDS011;66124;51.146;17.072;2023-08-12T05:53:27;6.50;;;5.80;;
77152;SDS011;66124;51.146;17.072;2023-08-12T05:55:56;7.70;;;6.80;;
77152;SDS011;66124;51.146;17.072;2023-08-12T05:58:26;7.30;;;6.10;;
77152;SDS011;66124;51.146;17.072;2023-08-12T06:00:55;7.10;;;5.90;;
77152;SDS011;66124;51.146;17.072;2023-08-12T06:03:24;5.90;;;5.10;;
77152;SDS011;66124;51.146;17.072;2023-08-12T06:05:54;5.60;;;5.10;;
77152;SDS011;66124;51.146;17.072;2023-08-12T06:08:23;5.40;;;4.90;;
77152;SDS011;66124;51.146;17.072;2023-08-12T06:10:53;6.10;;;5.10;;
77152;SDS011;66124;51.146;17.072;2023-08-12T06:13:22;6.20;;;5.10;;
77152;SDS011;66124;51.146;17.072;2023-08-12T06:15:51;9.30;;;5.30;;
77152;SDS011;66124;51.146;17.072;2023-08-12T06:18:21;5.70;;;5.10;;
77152;SDS011;66124;51.146;17.072;2023-08-12T06:20:50;5.90;;;5.40;;
77152;SDS011;66124;51.146;17.072;2023-08-12T06:23:19;6.40;;;4.50;;
77152;SDS011;66124;51.146;17.072;2023-08-12T06:25:49;6.50;;;4.70;;
77152;SDS011;66124;51.146;17.072;2023-08-12T06:28:18;8.00;;;5.50;;
77152;SDS011;66124;51.146;17.072;2023-08-12T06:30:48;7.20;;;4.60;;
77152;SDS011;66124;51.146;17.072;2023-08-12T06:33:17;6.20;;;5.70;;
77152;SDS011;66124;51.146;17.072;2023-08-12T06:35:47;5.70;;;4.60;;
77152;SDS011;66124;51.146;17.072;2023-08-12T06:38:17;4.10;;;3.70;;
77152;SDS011;66124;51.146;17.072;2023-08-12T06:40:46;4.60;;;3.40;;
77152;SDS011;66124;51.146;17.072;2023-08-12T06:46:13;4.40;;;4.00;;
77152;SDS011;66124;51.146;17.072;2023-08-12T06:48:42;4.30;;;3.80;;
77152;SDS011;66124;51.146;17.072;2023-08-12T06:51:12;3.90;;;3.50;;
77152;SDS011;66124;51.146;17.072;2023-08-12T06:53:41;4.30;;;3.90;;
77152;SDS011;66124;51.146;17.072;2023-08-12T06:56:11;4.70;;;4.30;;
77152;SDS011;66124;51.146;17.072;2023-08-12T06:58:41;5.50;;;3.60;;
77152;SDS011;66124;51.146;17.072;2023-08-12T07:01:11;4.70;;;3.60;;
77152;SDS011;66124;51.146;17.072;2023-08-12T07:03:40;5.30;;;3.80;;
77152;SDS011;66124;51.146;17.072;2023-08-12T07:06:10;4.50;;;3.60;;
77152;SDS011;66124;51.146;17.072;2023-08-12T07:08:39;4.00;;;3.60;;
77152;SDS011;66124;51.146;17.072;2023-08-12T07:11:08;3.90;;;3.60;;
77152;SDS011;66124;51.146;17.072;2023-08-12T07:13:38;3.20;;;2.90;;
77152;SDS011;66124;51.146;17.072;2023-08-12T07:16:07;3.80;;;3.30;;
77152;SDS011;66124;51.146;17.072;2023-08-12T07:18:36;4.40;;;2.80;;
77152;SDS011;66124;51.146;17.072;2023-08-12T07:21:06;4.20;;;3.30;;
77152;SDS011;66124;51.146;17.072;2023-08-12T07:23:35;4.70;;;2.90;;
77152;SDS011;66124;51.146;17.072;2023-08-12T07:26:05;3.50;;;3.10;;
77152;SDS011;66124;51.146;17.072;2023-08-12T07:28:34;3.80;;;3.00;;
77152;SDS011;66124;51.146;17.072;2023-08-12T07:31:04;3.90;;;2.80;;
77152;SDS011;66124;51.146;17.072;2023-08-12T07:33:33;4.40;;;2.50;;
77152;SDS011;66124;51.146;17.072;2023-08-12T07:36:03;3.50;;;2.90;;
77152;SDS011;66124;51.146;17.072;2023-08-12T07:38:32;3.00;;;2.70;;
77152;SDS011;66124;51.146;17.072;2023-08-12T07:41:02;3.60;;;2.50;;
77152;SDS011;66124;51.146;17.072;2023-08-12T07:43:31;3.20;;;2.90;;
77152;SDS011;66124;51.146;17.072;2023-08-12T07:46:00;3.30;;;3.00;;
77152;SDS011;66124;51.146;17.072;2023-08-12T07:48:30;4.20;;;3.00;;
77152;SDS011;66124;51.146;17.072;2023-08-12T07:50:59;3.90;;;2.50;;
77152;SDS011;66124;51.146;17.072;2023-08-12T07:53:28;3.40;;;2.40;;
77152;SDS011;66124;51.146;17.072;2023-08-12T07:55:58;2.00;;;1.30;;
77152;SDS011;66124;51.146;17.072;2023-08-12T08:06:52;3.40;;;2.60;;
77152;SDS011;66124;51.146;17.072;2023-08-12T08:09:21;3.20;;;2.60;;
77152;SDS011;66124;51.146;17.072;2023-08-12T08:11:51;4.30;;;2.70;;
77152;SDS011;66124;51.146;17.072;2023-08-12T08:14:20;2.70;;;2.20;;
77152;SDS011;66124;51.146;17.072;2023-08-12T08:16:50;4.60;;;2.50;;
77152;SDS011;66124;51.146;17.072;2023-08-12T08:19:20;3.60;;;2.40;;
77152;SDS011;66124;51.146;17.072;2023-08-12T08:21:50;3.40;;;2.50;;
77152;SDS011;66124;51.146;17.072;2023-08-12T08:24:19;2.90;;;2.30;;
77152;SDS011;66124;51.146;17.072;2023-08-12T08:26:49;4.20;;;2.30;;
77152;SDS011;66124;51.146;17.072;2023-08-12T08:29:18;2.80;;;2.50;;
77152;SDS011;66124;51.146;17.072;2023-08-12T08:31:48;2.20;;;2.00;;
77152;SDS011;66124;51.146;17.072;2023-08-12T08:34:17;3.10;;;2.00;;
77152;SDS011;66124;51.146;17.072;2023-08-12T08:36:47;2.60;;;2.30;;
77152;SDS011;66124;51.146;17.072;2023-08-12T08:39:16;2.60;;;2.00;;
77152;SDS011;66124;51.146;17.072;2023-08-12T08:41:45;2.90;;;2.60;;
77152;SDS011;66124;51.146;17.072;2023-08-12T08:44:17;3.80;;;2.70;;
77152;SDS011;66124;51.146;17.072;2023-08-12T08:46:51;3.10;;;2.40;;
77152;SDS011;66124;51.146;17.072;2023-08-12T08:51:50;2.60;;;2.30;;
77152;SDS011;66124;51.146;17.072;2023-08-12T08:54:20;3.70;;;2.20;;
77152;SDS011;66124;51.146;17.072;2023-08-12T08:56:50;6.90;;;2.10;;
77152;SDS011;66124;51.146;17.072;2023-08-12T08:59:20;2.90;;;2.40;;
77152;SDS011;66124;51.146;17.072;2023-08-12T09:01:50;2.60;;;2.40;;
77152;SDS011;66124;51.146;17.072;2023-08-12T09:04:22;4.20;;;2.40;;
77152;SDS011;66124;51.146;17.072;2023-08-12T09:06:52;2.00;;;1.80;;
77152;SDS011;66124;51.146;17.072;2023-08-12T09:09:22;3.00;;;1.90;;
77152;SDS011;66124;51.146;17.072;2023-08-12T09:11:53;2.50;;;1.90;;
77152;SDS011;66124;51.146;17.072;2023-08-12T09:14:24;3.20;;;2.10;;
77152;SDS011;66124;51.146;17.072;2023-08-12T09:16:53;2.80;;;1.80;;
77152;SDS011;66124;51.146;17.072;2023-08-12T09:26:33;3.00;;;2.10;;
77152;SDS011;66124;51.146;17.072;2023-08-12T09:29:02;4.60;;;2.40;;
77152;SDS011;66124;51.146;17.072;2023-08-12T09:31:32;4.10;;;2.20;;
77152;SDS011;66124;51.146;17.072;2023-08-12T09:34:03;2.70;;;2.30;;
77152;SDS011;66124;51.146;17.072;2023-08-12T09:36:33;4.80;;;2.70;;
77152;SDS011;66124;51.146;17.072;2023-08-12T09:39:07;3.50;;;2.40;;
77152;SDS011;66124;51.146;17.072;2023-08-12T09:41:37;3.10;;;2.20;;
77152;SDS011;66124;51.146;17.072;2023-08-12T09:44:07;4.10;;;2.30;;
77152;SDS011;66124;51.146;17.072;2023-08-12T09:46:37;3.70;;;2.20;;
77152;SDS011;66124;51.146;17.072;2023-08-12T09:49:08;3.30;;;2.10;;
77152;SDS011;66124;51.146;17.072;2023-08-12T09:51:38;2.80;;;2.30;;
77152;SDS011;66124;51.146;17.072;2023-08-12T09:54:09;2.50;;;1.90;;
77152;SDS011;66124;51.146;17.072;2023-08-12T09:56:39;2.50;;;2.00;;
77152;SDS011;66124;51.146;17.072;2023-08-12T09:59:10;3.10;;;2.20;;
77152;SDS011;66124;51.146;17.072;2023-08-12T10:01:42;2.70;;;2.30;;
77152;SDS011;66124;51.146;17.072;2023-08-12T10:04:13;2.10;;;1.90;;
77152;SDS011;66124;51.146;17.072;2023-08-12T10:06:45;2.70;;;1.90;;
77152;SDS011;66124;51.146;17.072;2023-08-12T10:09:16;2.80;;;1.80;;
77152;SDS011;66124;51.146;17.072;2023-08-12T10:11:45;2.50;;;2.10;;
77152;SDS011;66124;51.146;17.072;2023-08-12T10:14:15;2.20;;;1.90;;
77152;SDS011;66124;51.146;17.072;2023-08-12T10:16:45;3.90;;;2.00;;
77152;SDS011;66124;51.146;17.072;2023-08-12T10:19:17;2.10;;;1.90;;
77152;SDS011;66124;51.146;17.072;2023-08-12T10:21:48;2.70;;;2.30;;
77152;SDS011;66124;51.146;17.072;2023-08-12T10:24:21;2.20;;;1.90;;
77152;SDS011;66124;51.146;17.072;2023-08-12T10:26:53;2.60;;;1.80;;
77152;SDS011;66124;51.146;17.072;2023-08-12T10:29:23;2.60;;;2.30;;
77152;SDS011;66124;51.146;17.072;2023-08-12T10:31:53;2.20;;;1.70;;
77152;SDS011;66124;51.146;17.072;2023-08-12T10:34:25;6.20;;;2.20;;
77152;SDS011;66124;51.146;17.072;2023-08-12T10:36:55;1.70;;;1.60;;
77152;SDS011;66124;51.146;17.072;2023-08-12T10:46:49;2.70;;;1.70;;
77152;SDS011;66124;51.146;17.072;2023-08-12T10:49:19;2.70;;;2.10;;
77152;SDS011;66124;51.146;17.072;2023-08-12T10:51:50;2.30;;;2.10;;
77152;SDS011;66124;51.146;17.072;2023-08-12T10:54:23;2.90;;;1.90;;
77152;SDS011;66124;51.146;17.072;2023-08-12T10:57:07;3.80;;;2.20;;
77152;SDS011;66124;51.146;17.072;2023-08-12T10:59:52;2.90;;;2.00;;
77152;SDS011;66124;51.146;17.072;2023-08-12T11:02:28;1.70;;;1.50;;
77152;SDS011;66124;51.146;17.072;2023-08-12T11:05:00;4.20;;;2.10;;
77152;SDS011;66124;51.146;17.072;2023-08-12T11:07:34;3.30;;;2.00;;
77152;SDS011;66124;51.146;17.072;2023-08-12T11:10:09;1.70;;;1.60;;
77152;SDS011;66124;51.146;17.072;2023-08-12T11:12:41;2.70;;;1.60;;
77152;SDS011;66124;51.146;17.072;2023-08-12T11:15:15;1.80;;;1.60;;
77152;SDS011;66124;51.146;17.072;2023-08-12T11:17:45;2.70;;;1.70;;
77152;SDS011;66124;51.146;17.072;2023-08-12T11:20:15;2.50;;;1.50;;
77152;SDS011;66124;51.146;17.072;2023-08-12T11:22:45;1.60;;;1.50;;
77152;SDS011;66124;51.146;17.072;2023-08-12T11:25:14;2.20;;;1.50;;
77152;SDS011;66124;51.146;17.072;2023-08-12T11:27:44;1.70;;;1.60;;
77152;SDS011;66124;51.146;17.072;2023-08-12T11:30:14;2.50;;;1.40;;
77152;SDS011;66124;51.146;17.072;2023-08-12T11:32:46;1.60;;;1.50;;
77152;SDS011;66124;51.146;17.072;2023-08-12T11:35:17;2.10;;;1.80;;
77152;SDS011;66124;51.146;17.072;2023-08-12T11:37:49;2.20;;;1.30;;
77152;SDS011;66124;51.146;17.072;2023-08-12T11:40:19;2.40;;;1.60;;
77152;SDS011;66124;51.146;17.072;2023-08-12T11:42:50;1.80;;;1.60;;
77152;SDS011;66124;51.146;17.072;2023-08-12T11:45:21;1.80;;;1.50;;
77152;SDS011;66124;51.146;17.072;2023-08-12T11:47:52;2.40;;;1.60;;
77152;SDS011;66124;51.146;17.072;2023-08-12T11:50:22;2.10;;;1.60;;
77152;SDS011;66124;51.146;17.072;2023-08-12T11:52:52;1.80;;;1.40;;
77152;SDS011;66124;51.146;17.072;2023-08-12T11:55:23;1.60;;;1.40;;
77152;SDS011;66124;51.146;17.072;2023-08-12T12:03:06;2.10;;;1.70;;
77152;SDS011;66124;51.146;17.072;2023-08-12T12:08:04;1.90;;;1.60;;
77152;SDS011;66124;51.146;17.072;2023-08-12T12:10:34;2.90;;;1.50;;
77152;SDS011;66124;51.146;17.072;2023-08-12T12:13:04;1.70;;;1.50;;
77152;SDS011;66124;51.146;17.072;2023-08-12T12:15:35;4.10;;;1.50;;
77152;SDS011;66124;51.146;17.072;2023-08-12T12:18:10;1.90;;;1.60;;
77152;SDS011;66124;51.146;17.072;2023-08-12T12:20:54;3.90;;;1.90;;
77152;SDS011;66124;51.146;17.072;2023-08-12T12:23:28;2.60;;;1.70;;
77152;SDS011;66124;51.146;17.072;2023-08-12T12:25:58;1.60;;;1.50;;
77152;SDS011;66124;51.146;17.072;2023-08-12T12:28:29;2.50;;;1.70;;
77152;SDS011;66124;51.146;17.072;2023-08-12T12:30:58;2.10;;;1.50;;
77152;SDS011;66124;51.146;17.072;2023-08-12T12:33:28;3.00;;;1.60;;
77152;SDS011;66124;51.146;17.072;2023-08-12T12:35:57;1.70;;;1.40;;
77152;SDS011;66124;51.146;17.072;2023-08-12T12:38:26;1.70;;;1.60;;
77152;SDS011;66124;51.146;17.072;2023-08-12T12:40:56;1.90;;;1.70;;
77152;SDS011;66124;51.146;17.072;2023-08-12T12:43:26;1.80;;;1.70;;
77152;SDS011;66124;51.146;17.072;2023-08-12T12:45:55;1.90;;;1.70;;
77152;SDS011;66124;51.146;17.072;2023-08-12T12:48:25;1.70;;;1.60;;
77152;SDS011;66124;51.146;17.072;2023-08-12T12:50:54;2.00;;;1.60;;
77152;SDS011;66124;51.146;17.072;2023-08-12T12:53:24;2.40;;;1.90;;
77152;SDS011;66124;51.146;17.072;2023-08-12T12:55:53;3.30;;;1.70;;
77152;SDS011;66124;51.146;17.072;2023-08-12T12:58:23;1.80;;;1.70;;
77152;SDS011;66124;51.146;17.072;2023-08-12T13:00:53;2.70;;;1.70;;
77152;SDS011;66124;51.146;17.072;2023-08-12T13:03:22;2.20;;;1.70;;
77152;SDS011;66124;51.146;17.072;2023-08-12T13:05:51;4.00;;;1.70;;
77152;SDS011;66124;51.146;17.072;2023-08-12T13:08:21;1.90;;;1.70;;
77152;SDS011;66124;51.146;17.072;2023-08-12T13:10:51;1.70;;;1.60;;
77152;SDS011;66124;51.146;17.072;2023-08-12T13:13:20;2.80;;;1.60;;
77152;SDS011;66124;51.146;17.072;2023-08-12T13:21:23;2.80;;;1.80;;
77152;SDS011;66124;51.146;17.072;2023-08-12T13:23:52;2.10;;;1.80;;
77152;SDS011;66124;51.146;17.072;2023-08-12T13:26:21;2.10;;;1.70;;
77152;SDS011;66124;51.146;17.072;2023-08-12T13:28:51;2.40;;;1.90;;
77152;SDS011;66124;51.146;17.072;2023-08-12T13:31:20;2.20;;;1.80;;
77152;SDS011;66124;51.146;17.072;2023-08-12T13:33:51;1.90;;;1.70;;
77152;SDS011;66124;51.146;17.072;2023-08-12T13:38:48;2.10;;;1.90;;
77152;SDS011;66124;51.146;17.072;2023-08-12T13:41:18;2.30;;;2.20;;
77152;SDS011;66124;51.146;17.072;2023-08-12T13:43:47;5.10;;;1.70;;
77152;SDS011;66124;51.146;17.072;2023-08-12T13:46:16;2.10;;;1.80;;
77152;SDS011;66124;51.146;17.072;2023-08-12T13:48:46;2.90;;;2.50;;
77152;SDS011;66124;51.146;17.072;2023-08-12T13:51:15;2.80;;;2.60;;
77152;SDS011;66124;51.146;17.072;2023-08-12T13:53:44;1.90;;;1.80;;
77152;SDS011;66124;51.146;17.072;2023-08-12T13:56:14;3.10;;;2.00;;
77152;SDS011;66124;51.146;17.072;2023-08-12T13:58:43;2.00;;;1.90;;
77152;SDS011;66124;51.146;17.072;2023-08-12T14:01:13;2.00;;;1.80;;
77152;SDS011;66124;51.146;17.072;2023-08-12T14:03:42;2.90;;;1.70;;
77152;SDS011;66124;51.146;17.072;2023-08-12T14:06:12;3.20;;;1.90;;
77152;SDS011;66124;51.146;17.072;2023-08-12T14:08:41;1.90;;;1.80;;
77152;SDS011;66124;51.146;17.072;2023-08-12T14:11:10;2.30;;;1.80;;
77152;SDS011;66124;51.146;17.072;2023-08-12T14:13:40;2.00;;;1.60;;
77152;SDS011;66124;51.146;17.072;2023-08-12T14:16:09;1.80;;;1.60;;
77152;SDS011;66124;51.146;17.072;2023-08-12T14:18:38;2.50;;;2.20;;
77152;SDS011;66124;51.146;17.072;2023-08-12T14:21:08;2.20;;;1.80;;
77152;SDS011;66124;51.146;17.072;2023-08-12T14:23:37;3.50;;;2.20;;
77152;SDS011;66124;51.146;17.072;2023-08-12T14:26:06;3.00;;;1.90;;
77152;SDS011;66124;51.146;17.072;2023-08-12T14:28:36;4.20;;;1.80;;
77152;SDS011;66124;51.146;17.072;2023-08-12T14:31:05;1.80;;;1.50;;
77152;SDS011;66124;51.146;17.072;2023-08-12T14:41:52;3.20;;;2.20;;
77152;SDS011;66124;51.146;17.072;2023-08-12T14:44:21;3.60;;;2.30;;
77152;SDS011;66124;51.146;17.072;2023-08-12T14:46:51;2.80;;;2.10;;
77152;SDS011;66124;51.146;17.072;2023-08-12T14:49:20;3.20;;;1.80;;
77152;SDS011;66124;51.146;17.072;2023-08-12T14:51:50;2.70;;;2.00;;
77152;SDS011;66124;51.146;17.072;2023-08-12T14:54:20;3.30;;;2.30;;
77152;SDS011;66124;51.146;17.072;2023-08-12T14:56:50;3.10;;;1.80;;
77152;SDS011;66124;51.146;17.072;2023-08-12T14:59:19;2.50;;;2.30;;
77152;SDS011;66124;51.146;17.072;2023-08-12T15:01:48;3.10;;;2.00;;
77152;SDS011;66124;51.146;17.072;2023-08-12T15:04:18;3.20;;;2.40;;
77152;SDS011;66124;51.146;17.072;2023-08-12T15:06:47;3.60;;;2.10;;
77152;SDS011;66124;51.146;17.072;2023-08-12T15:09:17;3.70;;;3.20;;
77152;SDS011;66124;51.146;17.072;2023-08-12T15:11:46;2.40;;;2.20;;
77152;SDS011;66124;51.146;17.072;2023-08-12T15:14:16;3.00;;;2.20;;
77152;SDS011;66124;51.146;17.072;2023-08-12T15:16:45;3.40;;;2.30;;
77152;SDS011;66124;51.146;17.072;2023-08-12T15:19:15;3.10;;;2.80;;
77152;SDS011;66124;51.146;17.072;2023-08-12T15:21:44;1.80;;;1.70;;
77152;SDS011;66124;51.146;17.072;2023-08-12T15:24:14;2.30;;;2.10;;
77152;SDS011;66124;51.146;17.072;2023-08-12T15:26:43;2.60;;;2.40;;
77152;SDS011;66124;51.146;17.072;2023-08-12T15:29:13;2.40;;;2.20;;
77152;SDS011;66124;51.146;17.072;2023-08-12T15:31:43;3.80;;;3.10;;
77152;SDS011;66124;51.146;17.072;2023-08-12T15:34:12;2.80;;;2.50;;
77152;SDS011;66124;51.146;17.072;2023-08-12T15:36:41;2.50;;;2.10;;
77152;SDS011;66124;51.146;17.072;2023-08-12T15:39:11;2.50;;;2.30;;
77152;SDS011;66124;51.146;17.072;2023-08-12T15:41:41;2.60;;;2.10;;
77152;SDS011;66124;51.146;17.072;2023-08-12T15:44:11;2.60;;;2.40;;
77152;SDS011;66124;51.146;17.072;2023-08-12T15:46:41;3.70;;;2.80;;
77152;SDS011;66124;51.146;17.072;2023-08-12T15:49:11;2.00;;;1.90;;
77152;SDS011;66124;51.146;17.072;2023-08-12T15:51:40;2.00;;;1.70;;
77152;SDS011;66124;51.146;17.072;2023-08-12T16:02:29;3.00;;;2.30;;
77152;SDS011;66124;51.146;17.072;2023-08-12T16:04:56;2.90;;;2.30;;
77152;SDS011;66124;51.146;17.072;2023-08-12T16:07:24;3.50;;;2.00;;
77152;SDS011;66124;51.146;17.072;2023-08-12T16:09:51;2.20;;;2.10;;
77152;SDS011;66124;51.146;17.072;2023-08-12T16:12:19;3.90;;;2.40;;
77152;SDS011;66124;51.146;17.072;2023-08-12T16:14:46;3.00;;;2.10;;
77152;SDS011;66124;51.146;17.072;2023-08-12T16:17:13;3.00;;;2.30;;
77152;SDS011;66124;51.146;17.072;2023-08-12T16:19:41;2.70;;;2.10;;
77152;SDS011;66124;51.146;17.072;2023-08-12T16:36:50;3.20;;;2.10;;
77152;SDS011;66124;51.146;17.072;2023-08-12T16:39:19;2.50;;;1.80;;
77152;SDS011;66124;51.146;17.072;2023-08-12T16:41:48;2.60;;;1.90;;
77152;SDS011;66124;51.146;17.072;2023-08-12T16:44:18;2.50;;;1.90;;